English version
lugares datos climáticos artículos

datos de Mairena del Aljarafe, Sevilla, España
Año Mes Dia Mostrar

  Fecha       hora        Temp.ext.    Hum.ext.  Dir.Viento   Vel.Viento  Presion al NM   T.int. Prec.hoy 

   20-11-2017    18:05      22.4º(+1.4)     34%         -         0.0 km/h    1019.8 hpa     23.6º    0.0 mm
   20-11-2017    18:00      22.5º(+1.3)     33%         -         0.0 km/h    1019.9 hpa     23.6º    0.0 mm
   20-11-2017    17:55      22.7º(+1.3)     33%         -         0.0 km/h    1019.9 hpa     23.6º    0.0 mm
   20-11-2017    17:50      22.9º(+1.3)     32%         -         0.0 km/h    1020.0 hpa     23.6º    0.0 mm
   20-11-2017    17:45      23.0º(+1.2)     32%         -         0.0 km/h    1020.0 hpa     23.6º    0.0 mm
   20-11-2017    17:40      23.1º(+1.2)     32%         -         0.0 km/h    1020.0 hpa     23.6º    0.0 mm
   20-11-2017    17:35      23.2º(+1.1)     32%         -         0.0 km/h    1020.0 hpa     23.6º    0.0 mm
   20-11-2017    17:30      23.3º(+1.1)     31%         -         0.0 km/h    1020.2 hpa     23.6º    0.0 mm
   20-11-2017    17:25      23.3º(+1.0)     31%         -         0.0 km/h    1020.2 hpa     23.6º    0.0 mm
   20-11-2017    17:20      23.3º(+1.0)     31%         -         0.0 km/h    1020.2 hpa     23.6º    0.0 mm
   20-11-2017    17:15      23.4º(+1.1)     32%         -         0.0 km/h    1020.2 hpa     23.6º    0.0 mm
   20-11-2017    17:10      23.3º(+1.0)     32%         -         0.0 km/h    1020.2 hpa     23.6º    0.0 mm
   20-11-2017    17:05      23.3º(+0.9)     32%         -         0.0 km/h    1020.2 hpa     23.6º    0.0 mm
   20-11-2017    17:00      23.3º(+0.9)     32%         -         0.0 km/h    1020.2 hpa     23.6º    0.0 mm
   20-11-2017    16:55      23.2º(+0.8)     32%         -         0.0 km/h    1020.2 hpa     23.6º    0.0 mm
   20-11-2017    16:50      23.3º(+0.9)     32%         -         0.0 km/h    1020.2 hpa     23.6º    0.0 mm
   20-11-2017    16:45      23.2º(+0.8)     32%         -         0.0 km/h    1020.2 hpa     23.7º    0.0 mm
   20-11-2017    16:40      23.1º(+0.7)     32%         -         0.0 km/h    1020.3 hpa     23.7º    0.0 mm
   20-11-2017    16:35      23.1º(+0.6)     32%         -         0.0 km/h    1020.3 hpa     23.7º    0.0 mm
   20-11-2017    16:30      23.0º(+0.5)     32%         -         0.0 km/h    1020.3 hpa     23.7º    0.0 mm
   20-11-2017    16:25      22.9º(+0.4)     32%         -         0.0 km/h    1020.3 hpa     23.7º    0.0 mm
   20-11-2017    16:20      22.8º(+0.4)     33%         -         0.0 km/h    1020.3 hpa     23.7º    0.0 mm
   20-11-2017    16:15      22.7º(+0.3)     33%         -         0.0 km/h    1020.3 hpa     23.7º    0.0 mm
   20-11-2017    16:10      22.7º(+0.4)     33%         -         0.0 km/h    1020.3 hpa     23.6º    0.0 mm
   20-11-2017    16:05      22.7º(+0.5)     33%         -         0.0 km/h    1020.3 hpa     23.6º    0.0 mm
   20-11-2017    16:00      22.9º(+0.8)     34%         -         0.0 km/h    1020.3 hpa     23.6º    0.0 mm
   20-11-2017    15:55      22.7º(+0.8)     33%         -         0.0 km/h    1020.3 hpa     23.6º    0.0 mm
   20-11-2017    15:50      22.6º(+0.5)     34%         -         0.0 km/h    1020.3 hpa     23.6º    0.0 mm
   20-11-2017    15:45      22.4º(+0.4)     34%      045(NE)      1.6 km/h    1020.2 hpa     23.6º    0.0 mm
   20-11-2017    15:40      22.3º(+0.3)     34%         -         0.0 km/h    1020.2 hpa     23.5º    0.0 mm
   20-11-2017    15:35      22.3º(+0.2)     34%         -         0.0 km/h    1020.2 hpa     23.5º    0.0 mm
   20-11-2017    15:30      22.1º(+0.2)     34%         -         0.0 km/h    1020.3 hpa     23.6º    0.0 mm
   20-11-2017    15:25      22.1º(+0.2)     35%         -         0.0 km/h    1020.3 hpa     23.6º    0.0 mm
   20-11-2017    15:20      21.8º(+0.0)     35%      067(NE)      1.6 km/h    1020.4 hpa     23.6º    0.0 mm
   20-11-2017    15:15      21.9º(+0.2)     35%         -         0.0 km/h    1020.5 hpa     23.5º    0.0 mm
   20-11-2017    15:10      21.9º(+0.3)     35%         -         0.0 km/h    1020.5 hpa     23.5º    0.0 mm
   20-11-2017    15:05      21.7º(+0.2)     36%      067(NE)      1.6 km/h    1020.6 hpa     23.5º    0.0 mm
   20-11-2017    15:00      21.7º(+0.3)     36%         -         0.0 km/h    1020.6 hpa     23.5º    0.0 mm
   20-11-2017    14:55      21.5º(+0.2)     36%      045(NE)      3.2 km/h    1020.7 hpa     23.5º    0.0 mm
   20-11-2017    14:50      21.3º(+0.1)     37%         -         0.0 km/h    1020.8 hpa     23.4º    0.0 mm
   20-11-2017    14:45      21.1º(-0.1)     37%      067(NE)      1.6 km/h    1020.9 hpa     23.4º    0.0 mm
   20-11-2017    14:40      21.1º(-0.0)     38%         -         0.0 km/h    1020.9 hpa     23.4º    0.0 mm
   20-11-2017    14:35      21.1º(+0.2)     37%      067(NE)      1.6 km/h    1020.9 hpa     23.3º    0.0 mm
   20-11-2017    14:30      21.0º(+0.2)     38%         -         0.0 km/h    1021.0 hpa     23.3º    0.0 mm
   20-11-2017    14:25      20.9º(+0.1)     38%      045(NE)      1.6 km/h    1021.0 hpa     23.3º    0.0 mm
   20-11-2017    14:20      20.8º(+0.2)     38%      022 (N)      1.6 km/h    1021.1 hpa     23.2º    0.0 mm
   20-11-2017    14:15      20.7º(+0.3)     38%      022 (N)      3.2 km/h    1021.2 hpa     23.2º    0.0 mm
   20-11-2017    14:10      20.7º(+0.4)     38%      022 (N)      1.6 km/h    1021.3 hpa     23.2º    0.0 mm
   20-11-2017    14:05      20.6º(+0.4)     39%      000 (N)      1.6 km/h    1021.4 hpa     23.2º    0.0 mm
   20-11-2017    14:00      20.3º(+0.4)     39%      045(NE)      1.6 km/h    1021.4 hpa     23.2º    0.0 mm
   20-11-2017    13:55      20.2º(+0.5)     40%      067(NE)      1.6 km/h    1021.5 hpa     23.2º    0.0 mm
   20-11-2017    13:50      20.1º(+0.6)     40%         -         0.0 km/h    1021.5 hpa     23.2º    0.0 mm
   20-11-2017    13:45      19.9º(+0.5)     40%      045(NE)      1.6 km/h    1021.6 hpa     23.2º    0.0 mm
   20-11-2017    13:40      19.9º(+0.6)     41%      022 (N)      3.2 km/h    1021.6 hpa     23.2º    0.0 mm
   20-11-2017    13:35      19.8º(+0.5)     41%      022 (N)      3.2 km/h    1021.7 hpa     23.2º    0.0 mm
   20-11-2017    13:30      19.7º(+0.5)     42%         -         0.0 km/h    1021.8 hpa     23.2º    0.0 mm
   20-11-2017    13:25      19.5º(+0.6)     42%      022 (N)      1.6 km/h    1021.9 hpa     23.2º    0.0 mm
   20-11-2017    13:20      19.4º(+0.8)     42%      022 (N)      3.2 km/h    1021.9 hpa     23.2º    0.0 mm
   20-11-2017    13:15      19.2º(+0.8)     43%      045(NE)      1.6 km/h    1022.0 hpa     23.2º    0.0 mm
   20-11-2017    13:10      19.0º(+0.7)     43%      045(NE)      3.2 km/h    1022.0 hpa     23.2º    0.0 mm
   20-11-2017    13:05      18.9º(+0.6)     43%      045(NE)      1.6 km/h    1022.0 hpa     23.2º    0.0 mm
   20-11-2017    13:00      18.8º(+0.7)     44%      022 (N)      3.2 km/h    1022.0 hpa     23.2º    0.0 mm
   20-11-2017    12:55      18.7º(+0.9)     44%      022 (N)      1.6 km/h    1022.0 hpa     23.2º    0.0 mm
   20-11-2017    12:50      18.4º(+0.7)     45%      022 (N)      1.6 km/h    1022.1 hpa     23.2º    0.0 mm
   20-11-2017    12:45      18.2º(+0.6)     45%      022 (N)      1.6 km/h    1022.1 hpa     23.2º    0.0 mm
   20-11-2017    12:40      17.9º(+0.3)     46%      045(NE)      3.2 km/h    1022.1 hpa     23.2º    0.0 mm
   20-11-2017    12:35      17.8º(+0.4)     46%      045(NE)      4.8 km/h    1022.2 hpa     23.2º    0.0 mm
   20-11-2017    12:30      17.8º(+0.6)     46%      045(NE)      1.6 km/h    1022.2 hpa     23.2º    0.0 mm
   20-11-2017    12:25      17.6º(+0.4)     47%      045(NE)      1.6 km/h    1022.4 hpa     23.2º    0.0 mm
   20-11-2017    12:20      17.2º(+0.1)     48%      067(NE)      3.2 km/h    1022.4 hpa     23.2º    0.0 mm
   20-11-2017    12:15      17.1º(+0.2)     48%      067(NE)      1.6 km/h    1022.4 hpa     23.2º    0.0 mm
   20-11-2017    12:10      16.9º(+0.2)     49%      045(NE)      1.6 km/h    1022.4 hpa     23.2º    0.0 mm
   20-11-2017    12:05      16.7º(+0.3)     49%      045(NE)      3.2 km/h    1022.4 hpa     23.2º    0.0 mm
   20-11-2017    12:00      16.6º(+0.3)     50%      045(NE)      1.6 km/h    1022.5 hpa     23.2º    0.0 mm
   20-11-2017    11:55      16.3º(+0.3)     51%      022 (N)      3.2 km/h    1022.6 hpa     23.2º    0.0 mm
   20-11-2017    11:50      16.1º(+0.3)     52%      045(NE)      1.6 km/h    1022.7 hpa     23.2º    0.0 mm
   20-11-2017    11:45      15.7º(+0.3)     52%      045(NE)      3.2 km/h    1022.5 hpa     23.2º    0.0 mm
   20-11-2017    11:40      15.6º(+0.4)     53%      067(NE)      3.2 km/h    1022.7 hpa     23.2º    0.0 mm
   20-11-2017    11:35      15.3º(+0.3)     53%      067(NE)      3.2 km/h    1022.6 hpa     23.2º    0.0 mm
   20-11-2017    11:30      15.2º(+0.3)     54%      045(NE)      4.8 km/h    1022.6 hpa     23.2º    0.0 mm
   20-11-2017    11:25      14.9º(+0.1)     55%      045(NE)      3.2 km/h    1022.5 hpa     23.2º    0.0 mm
   20-11-2017    11:20      14.8º(+0.2)     56%      045(NE)      3.2 km/h    1022.6 hpa     23.2º    0.0 mm
   20-11-2017    11:15      14.4º(-0.1)     57%      045(NE)      1.6 km/h    1022.7 hpa     23.2º    0.0 mm
   20-11-2017    11:10      14.2º(-0.1)     57%      045(NE)      4.8 km/h    1022.6 hpa     23.2º    0.0 mm
   20-11-2017    11:05      13.9º(-0.1)     58%      067(NE)      4.8 km/h    1022.5 hpa     23.2º    0.0 mm
   20-11-2017    11:00      13.7º(-0.1)     58%      045(NE)      6.4 km/h    1022.5 hpa     23.3º    0.0 mm
   20-11-2017    10:55      13.6º(+0.1)     58%      045(NE)      6.4 km/h    1022.4 hpa     23.3º    0.0 mm
   20-11-2017    10:50      13.4º(+0.1)     59%      067(NE)      6.4 km/h    1022.2 hpa     23.3º    0.0 mm
   20-11-2017    10:45      13.3º(+0.2)     59%      045(NE)      4.8 km/h    1022.3 hpa     23.3º    0.0 mm
   20-11-2017    10:40      13.1º(+0.2)     60%      045(NE)      4.8 km/h    1022.2 hpa     23.3º    0.0 mm
   20-11-2017    10:35      12.9º(+0.1)     60%      045(NE)      4.8 km/h    1022.2 hpa     23.3º    0.0 mm
   20-11-2017    10:30      12.7º(+0.1)     60%      045(NE)      6.4 km/h    1022.2 hpa     23.3º    0.0 mm
   20-11-2017    10:25      12.6º(+0.1)     60%      045(NE)      4.8 km/h    1022.1 hpa     23.3º    0.0 mm
   20-11-2017    10:20      12.5º(+0.2)     60%      045(NE)      6.4 km/h    1022.1 hpa     23.3º    0.0 mm
   20-11-2017    10:15      12.4º(+0.2)     60%      045(NE)      9.7 km/h    1022.1 hpa     23.3º    0.0 mm
   20-11-2017    10:10      12.3º(+0.4)     60%      045(NE)      6.4 km/h    1022.1 hpa     23.2º    0.0 mm
   20-11-2017    10:05      12.3º(+0.6)     59%      045(NE)      8.0 km/h    1022.1 hpa     23.2º    0.0 mm
   20-11-2017    10:00      12.3º(+0.7)     60%      067(NE)      8.0 km/h    1022.0 hpa     23.2º    0.0 mm
   20-11-2017    09:55      12.3º(+0.9)     60%      045(NE)      6.4 km/h    1021.9 hpa     23.2º    0.0 mm
   20-11-2017    09:50      12.2º(+0.9)     60%      045(NE)      6.4 km/h    1022.0 hpa     23.2º    0.0 mm
   20-11-2017    09:45      12.1º(+1.0)     60%      045(NE)      8.0 km/h    1022.0 hpa     23.2º    0.0 mm
   20-11-2017    09:40      12.1º(+1.1)     60%      045(NE)      8.0 km/h    1022.0 hpa     23.2º    0.0 mm
   20-11-2017    09:35      12.1º(+1.2)     61%      045(NE)      3.2 km/h    1022.0 hpa     23.3º    0.0 mm
   20-11-2017    09:30      11.9º(+1.0)     61%      045(NE)      4.8 km/h    1021.9 hpa     23.3º    0.0 mm
   20-11-2017    09:25      11.8º(+1.0)     61%      067(NE)      6.4 km/h    1021.9 hpa     23.3º    0.0 mm
   20-11-2017    09:20      11.7º(+0.9)     62%      045(NE)      6.4 km/h    1021.8 hpa     23.3º    0.0 mm
   20-11-2017    09:15      11.6º(+0.9)     61%      045(NE)      4.8 km/h    1021.8 hpa     23.3º    0.0 mm
   20-11-2017    09:10      11.5º(+1.0)     62%      022 (N)      6.4 km/h    1021.8 hpa     23.3º    0.0 mm
   20-11-2017    09:05      11.3º(+0.9)     63%      045(NE)      6.4 km/h    1021.7 hpa     23.3º    0.0 mm
   20-11-2017    09:00      11.2º(+0.9)     63%      045(NE)      6.4 km/h    1021.7 hpa     23.3º    0.0 mm
   20-11-2017    08:55      11.2º(+1.0)     64%      022 (N)      6.4 km/h    1021.6 hpa     23.2º    0.0 mm
   20-11-2017    08:50      11.1º(----)     64%      045(NE)      6.4 km/h    1021.5 hpa     23.2º    0.0 mm
   20-11-2017    08:45      10.9º(----)     64%      067(NE)      6.4 km/h    1021.4 hpa     23.2º    0.0 mm
   20-11-2017    08:40      10.9º(----)     65%      090 (E)      4.8 km/h    1021.4 hpa     23.1º    0.0 mm
   20-11-2017    08:35      10.8º(----)     65%      045(NE)      6.4 km/h    1021.2 hpa     23.1º    0.0 mm
   20-11-2017    08:30        - º(----)      -%         -          -  km/h    1021.2 hpa     23.1º    0.0 mm
   20-11-2017    08:25        - º(----)      -%         -          -  km/h    1021.2 hpa     23.1º    0.0 mm
   20-11-2017    08:20        - º(----)      -%         -          -  km/h    1021.1 hpa     23.1º    0.0 mm
   20-11-2017    08:15        - º(----)      -%         -          -  km/h    1021.1 hpa     23.1º    0.0 mm
   20-11-2017    08:10        - º(----)      -%         -          -  km/h    1021.1 hpa     23.1º    0.0 mm
   20-11-2017    08:05        - º(----)      -%         -          -  km/h    1021.0 hpa     23.1º    0.0 mm
   20-11-2017    08:00        - º(----)      -%         -          -  km/h    1021.0 hpa     23.1º    0.0 mm
   20-11-2017    07:55        - º(----)      -%         -          -  km/h    1021.0 hpa     22.9º    0.0 mm
   20-11-2017    07:50        - º(----)      -%         -          -  km/h    1021.0 hpa     22.9º    0.0 mm
   20-11-2017    07:45        - º(----)      -%         -          -  km/h    1021.0 hpa     22.9º    0.0 mm
   20-11-2017    07:40        - º(----)      -%         -          -  km/h    1020.9 hpa     22.9º    0.0 mm
   20-11-2017    07:35        - º(----)      -%         -          -  km/h    1020.9 hpa     22.9º    0.0 mm
   20-11-2017    07:30        - º(----)      -%         -          -  km/h    1020.8 hpa     22.8º    0.0 mm
   20-11-2017    07:25        - º(----)      -%         -          -  km/h    1020.9 hpa     22.9º    0.0 mm
   20-11-2017    07:20        - º(----)      -%         -          -  km/h    1020.7 hpa     22.8º    0.0 mm
   20-11-2017    07:15        - º(----)      -%         -          -  km/h    1020.8 hpa     22.7º    0.0 mm
   20-11-2017    07:10        - º(----)      -%         -          -  km/h    1020.8 hpa     22.7º    0.0 mm
   20-11-2017    07:05        - º(----)      -%         -          -  km/h    1020.7 hpa     22.6º    0.0 mm
   20-11-2017    07:00        - º(----)      -%         -          -  km/h    1020.7 hpa     22.7º    0.0 mm
   20-11-2017    06:55        - º(----)      -%         -          -  km/h    1020.7 hpa     22.7º    0.0 mm
   20-11-2017    06:50        - º(----)      -%         -          -  km/h    1020.6 hpa     22.7º    0.0 mm
   20-11-2017    06:45        - º(----)      -%         -          -  km/h    1020.7 hpa     22.7º    0.0 mm
   20-11-2017    06:40        - º(----)      -%         -          -  km/h    1020.8 hpa     22.8º    0.0 mm
   20-11-2017    06:35        - º(----)      -%         -          -  km/h    1020.8 hpa     22.9º    0.0 mm
   20-11-2017    06:30      11.4º(+1.5)     65%         -          -  km/h    1020.8 hpa     22.9º    0.0 mm
   20-11-2017    06:25      11.4º(+1.5)     65%      045(NE)      4.8 km/h    1020.8 hpa     22.7º    0.0 mm
   20-11-2017    06:20      11.4º(+1.5)     66%      045(NE)      6.4 km/h    1020.8 hpa     22.7º    0.0 mm
   20-11-2017    06:15      11.3º(+1.3)     67%      067(NE)      3.2 km/h    1020.8 hpa     22.7º    0.0 mm
   20-11-2017    06:10      11.2º(+1.1)     67%      045(NE)      4.8 km/h    1020.8 hpa     22.7º    0.0 mm
   20-11-2017    06:05      11.2º(+1.1)     67%      045(NE)      4.8 km/h    1020.8 hpa     22.7º    0.0 mm
   20-11-2017    06:00      11.1º(+0.9)     68%      045(NE)      4.8 km/h    1020.8 hpa     22.7º    0.0 mm
   20-11-2017    05:55      11.1º(+0.9)     68%      045(NE)      4.8 km/h    1020.7 hpa     22.7º    0.0 mm
   20-11-2017    05:50      11.1º(+0.9)     69%      045(NE)      4.8 km/h    1020.7 hpa     22.7º    0.0 mm
   20-11-2017    05:45      11.1º(+0.8)     69%      045(NE)      4.8 km/h    1020.7 hpa     22.8º    0.0 mm
   20-11-2017    05:40      11.2º(+0.9)     69%      045(NE)      4.8 km/h    1020.7 hpa     22.8º    0.0 mm
   20-11-2017    05:35      11.2º(+0.8)     69%      045(NE)      4.8 km/h    1020.6 hpa     22.8º    0.0 mm
   20-11-2017    05:30      11.3º(+0.7)     69%      045(NE)      6.4 km/h    1020.5 hpa     22.8º    0.0 mm
   20-11-2017    05:25      11.3º(+0.6)     69%      045(NE)      4.8 km/h    1020.5 hpa     22.8º    0.0 mm
   20-11-2017    05:20      11.3º(+0.5)     69%      045(NE)      4.8 km/h    1020.5 hpa     22.8º    0.0 mm
   20-11-2017    05:15      11.3º(+0.4)     69%      045(NE)      3.2 km/h    1020.5 hpa     22.8º    0.0 mm
   20-11-2017    05:10      11.4º(+0.3)     68%      022 (N)      4.8 km/h    1020.5 hpa     22.8º    0.0 mm
   20-11-2017    05:05      11.4º(+0.3)     69%      045(NE)      3.2 km/h    1020.5 hpa     22.8º    0.0 mm
   20-11-2017    05:00      11.3º(+0.1)     69%      045(NE)      4.8 km/h    1020.5 hpa     22.8º    0.0 mm
   20-11-2017    04:55      11.3º(-0.0)     69%      045(NE)      4.8 km/h    1020.6 hpa     22.8º    0.0 mm
   20-11-2017    04:50      11.2º(-0.2)     70%      045(NE)      3.2 km/h    1020.5 hpa     22.8º    0.0 mm
   20-11-2017    04:45      11.2º(-0.2)     70%      045(NE)      4.8 km/h    1020.6 hpa     22.8º    0.0 mm
   20-11-2017    04:40      11.2º(-0.1)     70%      022 (N)      3.2 km/h    1020.5 hpa     22.8º    0.0 mm
   20-11-2017    04:35      11.2º(+0.3)     70%      045(NE)      4.8 km/h    1020.5 hpa     22.8º    0.0 mm
   20-11-2017    04:30      11.2º(+0.5)     70%      067(NE)      4.8 km/h    1020.4 hpa     22.8º    0.0 mm
   20-11-2017    04:25      11.3º(+0.6)     71%      045(NE)      6.4 km/h    1020.5 hpa     22.8º    0.0 mm
   20-11-2017    04:20      11.4º(+0.7)     71%      045(NE)      6.4 km/h    1020.5 hpa     22.8º    0.0 mm
   20-11-2017    04:15      11.5º(+0.8)     72%      045(NE)      3.2 km/h    1020.4 hpa     22.8º    0.0 mm
   20-11-2017    04:10      11.6º(+0.9)     72%      045(NE)      4.8 km/h    1020.5 hpa     22.9º    0.0 mm
   20-11-2017    04:05      11.6º(+0.9)     72%      045(NE)      6.4 km/h    1020.4 hpa     22.9º    0.0 mm
   20-11-2017    04:00      11.6º(+0.9)     71%      022 (N)      6.4 km/h    1020.5 hpa     22.9º    0.0 mm
   20-11-2017    03:55      11.7º(+0.9)     71%      045(NE)      4.8 km/h    1020.5 hpa     22.9º    0.0 mm
   20-11-2017    03:50      11.7º(+0.9)     71%      045(NE)      4.8 km/h    1020.5 hpa     22.9º    0.0 mm
   20-11-2017    03:45      11.8º(+1.0)     71%      022 (N)      4.8 km/h    1020.4 hpa     22.9º    0.0 mm
   20-11-2017    03:40      11.9º(+1.1)     70%      022 (N)      3.2 km/h    1020.4 hpa     22.9º    0.0 mm
   20-11-2017    03:35      12.1º(+1.2)     70%      000 (N)      3.2 km/h    1020.5 hpa     22.9º    0.0 mm
   20-11-2017    03:30      12.1º(+1.2)     69%         -         0.0 km/h    1020.5 hpa     22.9º    0.0 mm
   20-11-2017    03:25      12.2º(+1.2)     69%         -         0.0 km/h    1020.6 hpa     22.9º    0.0 mm
   20-11-2017    03:20      12.3º(+1.2)     68%      045(NE)      1.6 km/h    1020.6 hpa     23.1º    0.0 mm
   20-11-2017    03:15      12.3º(+1.0)     68%         -         0.0 km/h    1020.6 hpa     23.1º    0.0 mm
   20-11-2017    03:10      12.3º(+0.9)     68%      045(NE)      1.6 km/h    1020.6 hpa     23.1º    0.0 mm
   20-11-2017    03:05      12.3º(+0.8)     67%      045(NE)      1.6 km/h    1020.6 hpa     23.1º    0.0 mm
   20-11-2017    03:00      12.4º(+0.7)     67%      045(NE)      3.2 km/h    1020.6 hpa     23.1º    0.0 mm
   20-11-2017    02:55      12.4º(+0.6)     66%      022 (N)      3.2 km/h    1020.5 hpa     23.1º    0.0 mm
   20-11-2017    02:50      12.6º(+0.7)     66%      022 (N)      3.2 km/h    1020.5 hpa     23.1º    0.0 mm
   20-11-2017    02:45      12.7º(+0.6)     65%      045(NE)      1.6 km/h    1020.4 hpa     23.1º    0.0 mm
   20-11-2017    02:40      12.8º(+0.7)     65%      045(NE)      1.6 km/h    1020.4 hpa     23.1º    0.0 mm
   20-11-2017    02:35      12.8º(+0.6)     64%      045(NE)      1.6 km/h    1020.4 hpa     23.1º    0.0 mm
   20-11-2017    02:30      12.8º(+0.5)     64%      045(NE)      3.2 km/h    1020.4 hpa     23.1º    0.0 mm
   20-11-2017    02:25      12.8º(+0.4)     64%      045(NE)      1.6 km/h    1020.5 hpa     23.1º    0.0 mm
   20-11-2017    02:20      12.8º(+0.3)     64%      045(NE)      1.6 km/h    1020.4 hpa     23.1º    0.0 mm
   20-11-2017    02:15      12.7º(+0.1)     63%      045(NE)      1.6 km/h    1020.5 hpa     23.1º    0.0 mm
   20-11-2017    02:10      12.7º(-0.0)     62%         -         0.0 km/h    1020.5 hpa     23.2º    0.0 mm
   20-11-2017    02:05      12.7º(-0.1)     61%      045(NE)      1.6 km/h    1020.4 hpa     23.2º    0.0 mm
   20-11-2017    02:00      12.8º(-0.1)     61%         -         0.0 km/h    1020.5 hpa     23.2º    0.0 mm
   20-11-2017    01:55      12.8º(-0.1)     61%      045(NE)      1.6 km/h    1020.5 hpa     23.2º    0.0 mm
   20-11-2017    01:50      12.9º(-0.2)     60%         -         0.0 km/h    1020.5 hpa     23.2º    0.0 mm
   20-11-2017    01:45      13.0º(-0.2)     59%         -         0.0 km/h    1020.5 hpa     23.2º    0.0 mm
   20-11-2017    01:40      13.1º(-0.1)     59%      045(NE)      1.6 km/h    1020.5 hpa     23.2º    0.0 mm
   20-11-2017    01:35      13.1º(-0.3)     59%         -         0.0 km/h    1020.5 hpa     23.2º    0.0 mm
   20-11-2017    01:30      13.1º(-0.5)     59%         -         0.0 km/h    1020.6 hpa     23.2º    0.0 mm
   20-11-2017    01:25      13.1º(-0.6)     59%         -         0.0 km/h    1020.6 hpa     23.3º    0.0 mm
   20-11-2017    01:20      13.1º(-0.7)     59%         -         0.0 km/h    1020.6 hpa     23.3º    0.0 mm
   20-11-2017    01:15      13.1º(-0.8)     59%         -         0.0 km/h    1020.7 hpa     23.3º    0.0 mm
   20-11-2017    01:10      13.2º(-0.9)     59%         -         0.0 km/h    1020.6 hpa     23.3º    0.0 mm
   20-11-2017    01:05      13.2º(-1.0)     59%         -         0.0 km/h    1020.7 hpa     23.3º    0.0 mm
   20-11-2017    01:00      13.2º(-1.0)     59%         -         0.0 km/h    1020.6 hpa     23.3º    0.0 mm
   20-11-2017    00:55      13.2º(----)     59%         -         0.0 km/h    1020.7 hpa     23.3º    0.0 mm
   20-11-2017    00:50      13.3º(----)     59%         -         0.0 km/h    1020.7 hpa     23.3º    0.0 mm
   20-11-2017    00:45      13.4º(----)     59%         -         0.0 km/h    1020.7 hpa     23.3º    0.0 mm
   20-11-2017    00:40      13.5º(----)     58%      045(NE)      1.6 km/h    1020.7 hpa     23.3º    0.0 mm
   20-11-2017    00:35      13.6º(----)     58%      045(NE)      3.2 km/h    1020.7 hpa     23.3º    0.0 mm
   20-11-2017    00:30      13.7º(----)     58%      045(NE)      3.2 km/h    1020.8 hpa     23.3º    0.0 mm
   20-11-2017    00:25      13.7º(----)     57%      045(NE)      3.2 km/h    1020.8 hpa     23.3º    0.0 mm
   20-11-2017    00:20      13.8º(----)     57%      045(NE)      1.6 km/h    1020.8 hpa     23.3º    0.0 mm
   20-11-2017    00:15      13.9º(----)     57%      045(NE)      1.6 km/h    1020.8 hpa     23.4º    0.0 mm
   20-11-2017    00:10      14.1º(----)     56%      045(NE)      3.2 km/h    1020.8 hpa     23.4º    0.0 mm
   20-11-2017    00:05      14.2º(----)     56%      045(NE)      3.2 km/h    1020.8 hpa     23.4º    0.0 mm
   20-11-2017    00:00      14.2º(----)     56%      045(NE)      3.2 km/h    1020.8 hpa     23.4º    0.0 mm